sensor_id;sensor_type;location;lat;lon;timestamp;pressure;altitude;pressure_sealevel;temperature;humidity
33795;BME280;51430;52.242;21.118;2022-07-29T00:01:42;100841.81;;;15.24;81.75
33795;BME280;51430;52.242;21.118;2022-07-29T00:04:11;100840.95;;;15.16;82.19
33795;BME280;51430;52.242;21.118;2022-07-29T00:06:39;100843.75;;;15.12;82.37
33795;BME280;51430;52.242;21.118;2022-07-29T00:09:08;100846.56;;;15.08;82.55
33795;BME280;51430;52.242;21.118;2022-07-29T00:11:36;100844.45;;;15.04;82.62
33795;BME280;51430;52.242;21.118;2022-07-29T00:14:04;100848.86;;;15.00;82.94
33795;BME280;51430;52.242;21.118;2022-07-29T00:16:32;100847.48;;;14.96;83.17
33795;BME280;51430;52.242;21.118;2022-07-29T00:19:00;100846.95;;;14.94;83.21
33795;BME280;51430;52.242;21.118;2022-07-29T00:21:29;100850.79;;;14.96;83.54
33795;BME280;51430;52.242;21.118;2022-07-29T00:23:58;100848.21;;;14.96;83.40
33795;BME280;51430;52.242;21.118;2022-07-29T00:26:27;100846.85;;;14.95;83.48
33795;BME280;51430;52.242;21.118;2022-07-29T00:29:00;100848.38;;;14.94;83.65
33795;BME280;51430;52.242;21.118;2022-07-29T00:31:49;100845.74;;;14.92;83.69
33795;BME280;51430;52.242;21.118;2022-07-29T00:34:17;100845.83;;;14.91;83.78
33795;BME280;51430;52.242;21.118;2022-07-29T00:37:04;100847.23;;;14.87;83.87
33795;BME280;51430;52.242;21.118;2022-07-29T00:39:34;100850.88;;;14.83;84.12
33795;BME280;51430;52.242;21.118;2022-07-29T00:42:03;100850.72;;;14.81;84.39
33795;BME280;51430;52.242;21.118;2022-07-29T00:44:40;100846.48;;;14.77;84.52
33795;BME280;51430;52.242;21.118;2022-07-29T00:47:10;100842.87;;;14.74;84.97
33795;BME280;51430;52.242;21.118;2022-07-29T00:49:40;100844.70;;;14.74;85.13
33795;BME280;51430;52.242;21.118;2022-07-29T00:52:36;100843.69;;;14.73;85.31
33795;BME280;51430;52.242;21.118;2022-07-29T00:55:07;100843.01;;;14.75;85.20
33795;BME280;51430;52.242;21.118;2022-07-29T00:57:36;100841.66;;;14.76;85.04
33795;BME280;51430;52.242;21.118;2022-07-29T01:00:08;100837.98;;;14.76;85.01
33795;BME280;51430;52.242;21.118;2022-07-29T01:02:36;100838.73;;;14.76;85.41
33795;BME280;51430;52.242;21.118;2022-07-29T01:05:05;100841.76;;;14.75;85.47
33795;BME280;51430;52.242;21.118;2022-07-29T01:07:35;100842.70;;;14.76;85.48
33795;BME280;51430;52.242;21.118;2022-07-29T01:10:06;100846.20;;;14.76;85.38
33795;BME280;51430;52.242;21.118;2022-07-29T01:12:37;100844.05;;;14.79;85.63
33795;BME280;51430;52.242;21.118;2022-07-29T01:15:07;100842.83;;;14.83;85.40
33795;BME280;51430;52.242;21.118;2022-07-29T01:20:30;100837.90;;;14.79;85.30
33795;BME280;51430;52.242;21.118;2022-07-29T01:31:25;100843.33;;;14.61;86.20
33795;BME280;51430;52.242;21.118;2022-07-29T01:34:02;100841.23;;;14.57;86.24
33795;BME280;51430;52.242;21.118;2022-07-29T01:36:40;100838.70;;;14.55;86.29
33795;BME280;51430;52.242;21.118;2022-07-29T01:39:17;100838.92;;;14.51;86.46
33795;BME280;51430;52.242;21.118;2022-07-29T01:41:56;100838.09;;;14.48;86.45
33795;BME280;51430;52.242;21.118;2022-07-29T01:44:48;100838.63;;;14.44;86.56
33795;BME280;51430;52.242;21.118;2022-07-29T01:47:22;100843.18;;;14.40;86.68
33795;BME280;51430;52.242;21.118;2022-07-29T01:49:54;100841.83;;;14.37;86.89
33795;BME280;51430;52.242;21.118;2022-07-29T01:55:17;100844.84;;;14.35;87.11
33795;BME280;51430;52.242;21.118;2022-07-29T01:57:49;100847.84;;;14.35;87.00
33795;BME280;51430;52.242;21.118;2022-07-29T02:00:18;100846.98;;;14.32;87.17
33795;BME280;51430;52.242;21.118;2022-07-29T02:02:48;100842.73;;;14.29;87.34
33795;BME280;51430;52.242;21.118;2022-07-29T02:05:20;100848.23;;;14.26;87.42
33795;BME280;51430;52.242;21.118;2022-07-29T02:07:50;100850.19;;;14.28;87.44
33795;BME280;51430;52.242;21.118;2022-07-29T02:10:22;100850.71;;;14.26;87.30
33795;BME280;51430;52.242;21.118;2022-07-29T02:12:54;100847.04;;;14.21;87.45
33795;BME280;51430;52.242;21.118;2022-07-29T02:15:27;100848.92;;;14.17;87.61
33795;BME280;51430;52.242;21.118;2022-07-29T02:18:01;100851.02;;;14.11;87.92
33795;BME280;51430;52.242;21.118;2022-07-29T02:20:30;100847.29;;;14.07;88.10
33795;BME280;51430;52.242;21.118;2022-07-29T02:23:00;100843.30;;;14.05;88.04
33795;BME280;51430;52.242;21.118;2022-07-29T02:25:30;100845.28;;;14.00;88.14
33795;BME280;51430;52.242;21.118;2022-07-29T02:28:05;100846.33;;;13.94;88.33
33795;BME280;51430;52.242;21.118;2022-07-29T02:30:40;100847.54;;;13.87;88.53
33795;BME280;51430;52.242;21.118;2022-07-29T02:33:12;100848.30;;;13.85;88.53
33795;BME280;51430;52.242;21.118;2022-07-29T02:35:43;100848.98;;;13.81;88.60
33795;BME280;51430;52.242;21.118;2022-07-29T02:38:15;100852.30;;;13.77;89.20
33795;BME280;51430;52.242;21.118;2022-07-29T02:41:09;100853.90;;;13.72;89.30
33795;BME280;51430;52.242;21.118;2022-07-29T02:43:40;100852.67;;;13.72;89.60
33795;BME280;51430;52.242;21.118;2022-07-29T02:46:19;100850.77;;;13.72;89.67
33795;BME280;51430;52.242;21.118;2022-07-29T02:51:45;100850.73;;;13.72;90.18
33795;BME280;51430;52.242;21.118;2022-07-29T02:54:24;100848.56;;;13.73;90.26
33795;BME280;51430;52.242;21.118;2022-07-29T02:56:55;100850.35;;;13.75;90.30
33795;BME280;51430;52.242;21.118;2022-07-29T02:59:27;100849.30;;;13.73;90.41
33795;BME280;51430;52.242;21.118;2022-07-29T03:01:58;100852.67;;;13.78;90.70
33795;BME280;51430;52.242;21.118;2022-07-29T03:04:27;100850.86;;;13.79;90.73
33795;BME280;51430;52.242;21.118;2022-07-29T03:06:59;100853.36;;;13.77;90.93
33795;BME280;51430;52.242;21.118;2022-07-29T03:09:29;100856.11;;;13.77;90.93
33795;BME280;51430;52.242;21.118;2022-07-29T03:11:58;100860.38;;;13.76;90.86
33795;BME280;51430;52.242;21.118;2022-07-29T03:14:28;100859.73;;;13.72;91.09
33795;BME280;51430;52.242;21.118;2022-07-29T03:16:58;100860.55;;;13.72;91.47
33795;BME280;51430;52.242;21.118;2022-07-29T03:19:26;100857.09;;;13.74;91.14
33795;BME280;51430;52.242;21.118;2022-07-29T03:21:58;100855.89;;;13.76;91.54
33795;BME280;51430;52.242;21.118;2022-07-29T03:24:28;100860.21;;;13.78;91.55
33795;BME280;51430;52.242;21.118;2022-07-29T03:26:57;100861.56;;;13.81;91.32
33795;BME280;51430;52.242;21.118;2022-07-29T03:29:26;100859.81;;;13.83;91.33
33795;BME280;51430;52.242;21.118;2022-07-29T03:32:03;100860.80;;;13.86;91.23
33795;BME280;51430;52.242;21.118;2022-07-29T03:34:36;100865.83;;;13.89;91.24
33795;BME280;51430;52.242;21.118;2022-07-29T03:37:06;100865.00;;;13.93;90.95
33795;BME280;51430;52.242;21.118;2022-07-29T03:39:39;100866.52;;;13.96;90.89
33795;BME280;51430;52.242;21.118;2022-07-29T03:42:12;100864.34;;;13.99;90.75
33795;BME280;51430;52.242;21.118;2022-07-29T03:44:44;100865.03;;;13.99;90.77
33795;BME280;51430;52.242;21.118;2022-07-29T03:47:14;100863.77;;;13.99;91.02
33795;BME280;51430;52.242;21.118;2022-07-29T03:49:44;100864.16;;;14.03;91.36
33795;BME280;51430;52.242;21.118;2022-07-29T03:52:17;100853.29;;;14.07;91.34
33795;BME280;51430;52.242;21.118;2022-07-29T03:54:46;100851.79;;;14.14;91.19
33795;BME280;51430;52.242;21.118;2022-07-29T03:57:15;100855.27;;;14.19;90.99
33795;BME280;51430;52.242;21.118;2022-07-29T03:59:45;100853.30;;;14.22;90.90
33795;BME280;51430;52.242;21.118;2022-07-29T04:02:13;100853.90;;;14.27;90.76
33795;BME280;51430;52.242;21.118;2022-07-29T04:04:48;100853.55;;;14.33;90.62
33795;BME280;51430;52.242;21.118;2022-07-29T04:07:16;100859.20;;;14.37;90.53
33795;BME280;51430;52.242;21.118;2022-07-29T04:09:45;100867.94;;;14.42;90.31
33795;BME280;51430;52.242;21.118;2022-07-29T04:12:13;100867.45;;;14.43;90.27
33795;BME280;51430;52.242;21.118;2022-07-29T04:14:41;100865.63;;;14.48;90.09
33795;BME280;51430;52.242;21.118;2022-07-29T04:17:09;100863.17;;;14.56;90.09
33795;BME280;51430;52.242;21.118;2022-07-29T04:19:37;100859.93;;;14.66;89.89
33795;BME280;51430;52.242;21.118;2022-07-29T04:22:05;100865.08;;;14.75;89.75
33795;BME280;51430;52.242;21.118;2022-07-29T04:24:34;100861.61;;;14.83;89.59
33795;BME280;51430;52.242;21.118;2022-07-29T04:27:02;100863.41;;;14.90;89.58
33795;BME280;51430;52.242;21.118;2022-07-29T04:29:30;100864.39;;;14.97;89.23
33795;BME280;51430;52.242;21.118;2022-07-29T04:31:58;100865.58;;;15.02;89.19
33795;BME280;51430;52.242;21.118;2022-07-29T04:34:26;100864.27;;;15.09;89.23
33795;BME280;51430;52.242;21.118;2022-07-29T04:36:55;100862.52;;;15.23;89.02
33795;BME280;51430;52.242;21.118;2022-07-29T04:39:23;100864.39;;;15.33;88.71
33795;BME280;51430;52.242;21.118;2022-07-29T04:41:56;100867.24;;;15.43;88.77
33795;BME280;51430;52.242;21.118;2022-07-29T04:44:25;100871.71;;;15.54;88.42
33795;BME280;51430;52.242;21.118;2022-07-29T04:46:56;100870.70;;;15.62;87.98
33795;BME280;51430;52.242;21.118;2022-07-29T04:49:25;100868.78;;;15.71;87.83
33795;BME280;51430;52.242;21.118;2022-07-29T04:51:54;100872.20;;;15.80;87.58
33795;BME280;51430;52.242;21.118;2022-07-29T04:54:22;100869.50;;;15.87;87.45
33795;BME280;51430;52.242;21.118;2022-07-29T04:56:51;100873.52;;;15.99;87.14
33795;BME280;51430;52.242;21.118;2022-07-29T04:59:19;100874.52;;;16.11;87.07
33795;BME280;51430;52.242;21.118;2022-07-29T05:01:47;100875.44;;;16.22;86.52
33795;BME280;51430;52.242;21.118;2022-07-29T05:04:16;100880.67;;;16.32;86.36
33795;BME280;51430;52.242;21.118;2022-07-29T05:06:44;100883.21;;;16.44;86.07
33795;BME280;51430;52.242;21.118;2022-07-29T05:09:13;100881.89;;;16.53;85.79
33795;BME280;51430;52.242;21.118;2022-07-29T05:11:41;100881.13;;;16.61;85.30
33795;BME280;51430;52.242;21.118;2022-07-29T05:14:08;100885.75;;;16.72;85.02
33795;BME280;51430;52.242;21.118;2022-07-29T05:16:36;100887.80;;;16.82;84.45
33795;BME280;51430;52.242;21.118;2022-07-29T05:19:04;100888.51;;;16.90;84.08
33795;BME280;51430;52.242;21.118;2022-07-29T05:21:39;100892.77;;;17.00;84.00
33795;BME280;51430;52.242;21.118;2022-07-29T05:24:06;100892.22;;;17.12;83.29
33795;BME280;51430;52.242;21.118;2022-07-29T05:26:35;100894.57;;;17.16;82.23
33795;BME280;51430;52.242;21.118;2022-07-29T05:29:05;100896.36;;;17.29;82.60
33795;BME280;51430;52.242;21.118;2022-07-29T05:31:53;100894.58;;;17.48;82.07
33795;BME280;51430;52.242;21.118;2022-07-29T05:34:21;100901.90;;;17.60;81.23
33795;BME280;51430;52.242;21.118;2022-07-29T05:36:49;100901.29;;;17.68;80.95
33795;BME280;51430;52.242;21.118;2022-07-29T05:39:17;100900.86;;;17.88;80.73
33795;BME280;51430;52.242;21.118;2022-07-29T05:41:45;100902.90;;;18.03;79.25
33795;BME280;51430;52.242;21.118;2022-07-29T05:44:18;100902.77;;;18.29;79.16
33795;BME280;51430;52.242;21.118;2022-07-29T05:46:51;100895.58;;;18.65;77.88
33795;BME280;51430;52.242;21.118;2022-07-29T05:49:19;100894.89;;;19.27;75.41
33795;BME280;51430;52.242;21.118;2022-07-29T05:51:54;100898.90;;;20.09;72.22
33795;BME280;51430;52.242;21.118;2022-07-29T05:54:22;100894.76;;;20.41;69.12
33795;BME280;51430;52.242;21.118;2022-07-29T05:56:49;100890.14;;;20.57;68.53
33795;BME280;51430;52.242;21.118;2022-07-29T05:59:17;100889.58;;;20.90;68.20
33795;BME280;51430;52.242;21.118;2022-07-29T06:01:45;100894.16;;;21.44;66.29
33795;BME280;51430;52.242;21.118;2022-07-29T06:04:13;100895.41;;;21.69;64.36
33795;BME280;51430;52.242;21.118;2022-07-29T06:06:42;100895.73;;;22.14;63.23
33795;BME280;51430;52.242;21.118;2022-07-29T06:09:10;100893.27;;;22.14;62.31
33795;BME280;51430;52.242;21.118;2022-07-29T06:11:40;100891.38;;;22.45;62.37
33795;BME280;51430;52.242;21.118;2022-07-29T06:14:09;100889.23;;;22.88;60.81
33795;BME280;51430;52.242;21.118;2022-07-29T06:16:37;100889.84;;;23.32;60.26
33795;BME280;51430;52.242;21.118;2022-07-29T06:19:05;100891.55;;;23.77;58.68
33795;BME280;51430;52.242;21.118;2022-07-29T06:21:33;100893.52;;;23.96;57.66
33795;BME280;51430;52.242;21.118;2022-07-29T06:24:06;100893.68;;;24.13;57.74
33795;BME280;51430;52.242;21.118;2022-07-29T06:26:34;100894.71;;;24.41;56.75
33795;BME280;51430;52.242;21.118;2022-07-29T06:29:07;100895.46;;;24.77;55.87
33795;BME280;51430;52.242;21.118;2022-07-29T06:31:59;100897.26;;;25.20;54.49
33795;BME280;51430;52.242;21.118;2022-07-29T06:34:29;100897.20;;;25.34;52.95
33795;BME280;51430;52.242;21.118;2022-07-29T06:36:57;100898.17;;;25.14;53.77
33795;BME280;51430;52.242;21.118;2022-07-29T06:39:26;100899.45;;;25.46;53.30
33795;BME280;51430;52.242;21.118;2022-07-29T06:41:54;100897.05;;;25.69;52.70
33795;BME280;51430;52.242;21.118;2022-07-29T06:44:22;100895.83;;;25.91;52.38
33795;BME280;51430;52.242;21.118;2022-07-29T06:46:49;100901.83;;;26.18;51.58
33795;BME280;51430;52.242;21.118;2022-07-29T06:49:19;100900.66;;;26.37;50.68
33795;BME280;51430;52.242;21.118;2022-07-29T06:52:11;100904.39;;;26.69;50.35
33795;BME280;51430;52.242;21.118;2022-07-29T06:54:38;100899.14;;;26.95;49.95
33795;BME280;51430;52.242;21.118;2022-07-29T06:57:07;100899.73;;;27.21;49.90
33795;BME280;51430;52.242;21.118;2022-07-29T06:59:35;100896.52;;;27.40;48.22
33795;BME280;51430;52.242;21.118;2022-07-29T07:02:03;100900.58;;;27.62;47.97
33795;BME280;51430;52.242;21.118;2022-07-29T07:04:31;100902.75;;;27.60;46.96
33795;BME280;51430;52.242;21.118;2022-07-29T07:07:00;100905.77;;;27.57;46.38
33795;BME280;51430;52.242;21.118;2022-07-29T07:09:28;100902.90;;;27.33;47.01
33795;BME280;51430;52.242;21.118;2022-07-29T07:12:07;100897.39;;;27.52;46.63
33795;BME280;51430;52.242;21.118;2022-07-29T07:14:35;100898.96;;;27.84;46.99
33795;BME280;51430;52.242;21.118;2022-07-29T07:17:03;100903.09;;;28.21;46.11
33795;BME280;51430;52.242;21.118;2022-07-29T07:19:32;100901.95;;;28.25;45.14
33795;BME280;51430;52.242;21.118;2022-07-29T07:22:00;100898.29;;;28.06;44.64
33795;BME280;51430;52.242;21.118;2022-07-29T07:24:28;100898.56;;;27.84;44.91
33795;BME280;51430;52.242;21.118;2022-07-29T07:26:56;100898.55;;;27.85;45.42
33795;BME280;51430;52.242;21.118;2022-07-29T07:29:24;100899.27;;;27.92;44.72
33795;BME280;51430;52.242;21.118;2022-07-29T07:31:52;100899.61;;;28.21;44.66
33795;BME280;51430;52.242;21.118;2022-07-29T07:34:27;100902.95;;;28.58;44.19
33795;BME280;51430;52.242;21.118;2022-07-29T07:36:56;100906.35;;;28.87;43.41
33795;BME280;51430;52.242;21.118;2022-07-29T07:39:24;100910.03;;;29.12;42.52
33795;BME280;51430;52.242;21.118;2022-07-29T07:41:53;100906.67;;;29.36;41.96
33795;BME280;51430;52.242;21.118;2022-07-29T07:44:21;100904.66;;;29.48;42.24
33795;BME280;51430;52.242;21.118;2022-07-29T07:46:50;100909.09;;;29.72;42.06
33795;BME280;51430;52.242;21.118;2022-07-29T07:49:19;100910.67;;;29.97;40.88
33795;BME280;51430;52.242;21.118;2022-07-29T07:51:47;100909.35;;;29.53;41.13
33795;BME280;51430;52.242;21.118;2022-07-29T07:54:17;100916.10;;;30.02;41.14
33795;BME280;51430;52.242;21.118;2022-07-29T07:56:47;100917.67;;;30.60;40.73
33795;BME280;51430;52.242;21.118;2022-07-29T07:59:20;100914.44;;;31.05;39.86
33795;BME280;51430;52.242;21.118;2022-07-29T08:01:49;100911.95;;;31.10;39.14
33795;BME280;51430;52.242;21.118;2022-07-29T08:04:23;100915.02;;;30.18;39.21
33795;BME280;51430;52.242;21.118;2022-07-29T08:06:56;100914.71;;;30.20;40.03
33795;BME280;51430;52.242;21.118;2022-07-29T08:09:26;100916.19;;;30.49;40.24
33795;BME280;51430;52.242;21.118;2022-07-29T08:11:58;100916.30;;;31.18;39.62
33795;BME280;51430;52.242;21.118;2022-07-29T08:14:27;100918.66;;;31.83;38.72
33795;BME280;51430;52.242;21.118;2022-07-29T08:16:55;100916.04;;;32.21;37.68
33795;BME280;51430;52.242;21.118;2022-07-29T08:19:23;100912.40;;;32.25;37.48
33795;BME280;51430;52.242;21.118;2022-07-29T08:21:51;100912.63;;;31.92;38.45
33795;BME280;51430;52.242;21.118;2022-07-29T08:24:22;100911.15;;;31.34;37.91
33795;BME280;51430;52.242;21.118;2022-07-29T08:27:10;100916.22;;;30.24;39.07
33795;BME280;51430;52.242;21.118;2022-07-29T08:29:58;100911.66;;;29.71;40.30
33795;BME280;51430;52.242;21.118;2022-07-29T08:32:26;100903.31;;;29.16;40.84
33795;BME280;51430;52.242;21.118;2022-07-29T08:35:16;100906.15;;;29.96;39.74
33795;BME280;51430;52.242;21.118;2022-07-29T08:37:43;100908.24;;;31.11;38.05
33795;BME280;51430;52.242;21.118;2022-07-29T08:40:12;100906.88;;;31.68;38.56
33795;BME280;51430;52.242;21.118;2022-07-29T08:42:40;100907.69;;;32.29;37.40
33795;BME280;51430;52.242;21.118;2022-07-29T08:45:09;100912.38;;;32.19;36.27
33795;BME280;51430;52.242;21.118;2022-07-29T08:47:38;100911.85;;;32.25;37.04
33795;BME280;51430;52.242;21.118;2022-07-29T08:50:10;100907.32;;;31.54;38.15
33795;BME280;51430;52.242;21.118;2022-07-29T08:52:40;100908.12;;;30.52;39.81
33795;BME280;51430;52.242;21.118;2022-07-29T08:55:09;100904.21;;;29.52;40.78
33795;BME280;51430;52.242;21.118;2022-07-29T08:57:39;100906.89;;;29.46;39.98
33795;BME280;51430;52.242;21.118;2022-07-29T09:00:22;100911.39;;;30.09;40.66
33795;BME280;51430;52.242;21.118;2022-07-29T09:02:56;100912.69;;;29.43;40.31
33795;BME280;51430;52.242;21.118;2022-07-29T09:05:25;100912.92;;;28.74;42.05
33795;BME280;51430;52.242;21.118;2022-07-29T09:07:54;100905.70;;;28.33;41.88
33795;BME280;51430;52.242;21.118;2022-07-29T09:10:23;100901.39;;;28.32;42.13
33795;BME280;51430;52.242;21.118;2022-07-29T09:12:51;100899.73;;;29.25;41.12
33795;BME280;51430;52.242;21.118;2022-07-29T09:15:20;100898.77;;;30.02;39.56
33795;BME280;51430;52.242;21.118;2022-07-29T09:17:49;100899.46;;;30.05;39.77
33795;BME280;51430;52.242;21.118;2022-07-29T09:20:19;100894.73;;;29.92;39.21
33795;BME280;51430;52.242;21.118;2022-07-29T09:22:52;100891.39;;;30.28;39.07
33795;BME280;51430;52.242;21.118;2022-07-29T09:25:38;100893.20;;;31.56;36.57
33795;BME280;51430;52.242;21.118;2022-07-29T09:28:16;100897.50;;;31.05;37.00
33795;BME280;51430;52.242;21.118;2022-07-29T09:30:52;100903.26;;;30.19;38.57
33795;BME280;51430;52.242;21.118;2022-07-29T09:33:22;100901.33;;;29.69;39.53
33795;BME280;51430;52.242;21.118;2022-07-29T09:36:09;100895.85;;;29.19;39.92
33795;BME280;51430;52.242;21.118;2022-07-29T09:38:37;100893.10;;;28.55;40.54
33795;BME280;51430;52.242;21.118;2022-07-29T09:41:05;100888.69;;;28.19;41.16
33795;BME280;51430;52.242;21.118;2022-07-29T09:43:36;100886.87;;;28.31;41.36
33795;BME280;51430;52.242;21.118;2022-07-29T09:46:11;100888.51;;;28.55;40.67
33795;BME280;51430;52.242;21.118;2022-07-29T09:48:40;100886.47;;;29.97;39.11
33795;BME280;51430;52.242;21.118;2022-07-29T09:51:20;100890.98;;;31.78;35.88
33795;BME280;51430;52.242;21.118;2022-07-29T09:53:56;100894.73;;;33.12;33.57
33795;BME280;51430;52.242;21.118;2022-07-29T09:56:41;100891.63;;;33.28;31.72
33795;BME280;51430;52.242;21.118;2022-07-29T09:59:10;100890.33;;;33.69;31.81
33795;BME280;51430;52.242;21.118;2022-07-29T10:01:39;100890.08;;;33.72;32.67
33795;BME280;51430;52.242;21.118;2022-07-29T10:04:07;100883.75;;;33.51;33.74
33795;BME280;51430;52.242;21.118;2022-07-29T10:06:56;100883.09;;;33.31;33.63
33795;BME280;51430;52.242;21.118;2022-07-29T10:09:32;100880.98;;;32.59;34.15
33795;BME280;51430;52.242;21.118;2022-07-29T10:12:10;100876.77;;;31.93;34.17
33795;BME280;51430;52.242;21.118;2022-07-29T10:14:42;100876.98;;;32.31;34.20
33795;BME280;51430;52.242;21.118;2022-07-29T10:17:10;100877.20;;;32.52;34.07
33795;BME280;51430;52.242;21.118;2022-07-29T10:19:42;100874.98;;;32.52;34.34
33795;BME280;51430;52.242;21.118;2022-07-29T10:22:11;100870.20;;;32.25;34.36
33795;BME280;51430;52.242;21.118;2022-07-29T10:24:39;100872.08;;;31.70;34.65
33795;BME280;51430;52.242;21.118;2022-07-29T10:27:08;100861.05;;;31.02;35.47
33795;BME280;51430;52.242;21.118;2022-07-29T10:29:36;100857.73;;;30.61;36.59
33795;BME280;51430;52.242;21.118;2022-07-29T10:38:30;100858.03;;;30.57;36.87
33795;BME280;51430;52.242;21.118;2022-07-29T10:44:02;100853.34;;;31.92;34.58
33795;BME280;51430;52.242;21.118;2022-07-29T10:46:38;100854.86;;;32.41;33.86
33795;BME280;51430;52.242;21.118;2022-07-29T10:49:19;100853.58;;;32.40;33.23
33795;BME280;51430;52.242;21.118;2022-07-29T10:57:19;100861.93;;;33.92;31.21
33795;BME280;51430;52.242;21.118;2022-07-29T11:05:13;100856.96;;;34.91;30.58
33795;BME280;51430;52.242;21.118;2022-07-29T11:10:48;100857.46;;;34.58;30.43
33795;BME280;51430;52.242;21.118;2022-07-29T11:16:14;100852.05;;;33.83;31.72
33795;BME280;51430;52.242;21.118;2022-07-29T11:21:42;100842.70;;;32.73;32.26
33795;BME280;51430;52.242;21.118;2022-07-29T11:24:29;100840.72;;;32.44;32.71
33795;BME280;51430;52.242;21.118;2022-07-29T11:27:30;100839.21;;;32.48;33.29
33795;BME280;51430;52.242;21.118;2022-07-29T11:30:07;100833.39;;;32.58;33.89
33795;BME280;51430;52.242;21.118;2022-07-29T11:32:41;100838.29;;;32.45;33.37
33795;BME280;51430;52.242;21.118;2022-07-29T11:35:30;100836.62;;;32.66;33.45
33795;BME280;51430;52.242;21.118;2022-07-29T11:41:30;100826.09;;;31.71;34.29
33795;BME280;51430;52.242;21.118;2022-07-29T11:44:06;100816.34;;;31.36;34.90
33795;BME280;51430;52.242;21.118;2022-07-29T11:46:45;100820.83;;;31.65;34.21
33795;BME280;51430;52.242;21.118;2022-07-29T11:49:25;100818.88;;;31.86;34.06
33795;BME280;51430;52.242;21.118;2022-07-29T11:52:15;100822.33;;;31.88;33.87
33795;BME280;51430;52.242;21.118;2022-07-29T11:54:43;100818.58;;;31.80;34.38
33795;BME280;51430;52.242;21.118;2022-07-29T11:57:25;100816.20;;;31.79;34.38
33795;BME280;51430;52.242;21.118;2022-07-29T12:00:06;100815.96;;;31.63;35.41
33795;BME280;51430;52.242;21.118;2022-07-29T12:02:42;100815.94;;;31.45;35.03
33795;BME280;51430;52.242;21.118;2022-07-29T12:05:16;100815.83;;;31.95;34.64
33795;BME280;51430;52.242;21.118;2022-07-29T12:08:09;100814.23;;;33.34;32.54
33795;BME280;51430;52.242;21.118;2022-07-29T12:10:46;100818.39;;;34.17;31.52
33795;BME280;51430;52.242;21.118;2022-07-29T12:13:19;100817.52;;;35.24;30.60
33795;BME280;51430;52.242;21.118;2022-07-29T12:15:56;100819.66;;;36.45;29.07
33795;BME280;51430;52.242;21.118;2022-07-29T12:18:27;100817.64;;;36.48;28.53
33795;BME280;51430;52.242;21.118;2022-07-29T12:21:01;100817.00;;;35.75;29.45
33795;BME280;51430;52.242;21.118;2022-07-29T12:23:33;100816.35;;;35.95;29.38
33795;BME280;51430;52.242;21.118;2022-07-29T12:26:05;100823.25;;;36.67;28.30
33795;BME280;51430;52.242;21.118;2022-07-29T12:28:48;100823.95;;;37.88;27.03
33795;BME280;51430;52.242;21.118;2022-07-29T12:31:17;100825.59;;;39.01;26.17
33795;BME280;51430;52.242;21.118;2022-07-29T12:34:05;100829.88;;;39.33;24.64
33795;BME280;51430;52.242;21.118;2022-07-29T12:36:33;100826.60;;;37.89;26.03
33795;BME280;51430;52.242;21.118;2022-07-29T12:39:02;100814.27;;;36.09;27.36
33795;BME280;51430;52.242;21.118;2022-07-29T12:41:30;100804.30;;;34.66;29.22
33795;BME280;51430;52.242;21.118;2022-07-29T12:43:59;100800.89;;;34.75;29.43
33795;BME280;51430;52.242;21.118;2022-07-29T12:46:26;100799.30;;;34.84;29.74
33795;BME280;51430;52.242;21.118;2022-07-29T12:48:55;100801.72;;;34.42;30.91
33795;BME280;51430;52.242;21.118;2022-07-29T12:51:39;100795.66;;;33.70;31.30
33795;BME280;51430;52.242;21.118;2022-07-29T12:54:13;100788.03;;;32.97;31.21
33795;BME280;51430;52.242;21.118;2022-07-29T12:56:44;100784.44;;;32.45;32.00
33795;BME280;51430;52.242;21.118;2022-07-29T13:01:42;100786.00;;;31.91;33.44
33795;BME280;51430;52.242;21.118;2022-07-29T13:04:10;100787.48;;;32.34;32.89
33795;BME280;51430;52.242;21.118;2022-07-29T13:06:40;100787.30;;;32.81;32.31
33795;BME280;51430;52.242;21.118;2022-07-29T13:09:20;100786.52;;;32.86;32.39
33795;BME280;51430;52.242;21.118;2022-07-29T13:11:52;100784.45;;;33.18;32.11
33795;BME280;51430;52.242;21.118;2022-07-29T13:17:10;100788.98;;;33.65;31.43
33795;BME280;51430;52.242;21.118;2022-07-29T13:19:43;100781.73;;;33.24;30.91
33795;BME280;51430;52.242;21.118;2022-07-29T13:22:15;100775.79;;;32.90;31.53
33795;BME280;51430;52.242;21.118;2022-07-29T13:24:55;100770.27;;;33.06;31.62
33795;BME280;51430;52.242;21.118;2022-07-29T13:27:28;100768.02;;;34.21;30.54
33795;BME280;51430;52.242;21.118;2022-07-29T13:29:57;100771.18;;;35.13;29.47
33795;BME280;51430;52.242;21.118;2022-07-29T13:32:29;100771.56;;;35.11;29.26
33795;BME280;51430;52.242;21.118;2022-07-29T13:34:59;100774.13;;;34.42;29.92
33795;BME280;51430;52.242;21.118;2022-07-29T13:37:36;100768.98;;;33.57;31.00
33795;BME280;51430;52.242;21.118;2022-07-29T13:40:08;100760.30;;;32.94;31.42
33795;BME280;51430;52.242;21.118;2022-07-29T13:42:37;100759.79;;;32.75;31.67
33795;BME280;51430;52.242;21.118;2022-07-29T13:45:06;100756.86;;;32.70;31.72
33795;BME280;51430;52.242;21.118;2022-07-29T13:47:34;100760.15;;;33.25;31.53
33795;BME280;51430;52.242;21.118;2022-07-29T13:50:04;100755.85;;;33.41;31.24
33795;BME280;51430;52.242;21.118;2022-07-29T13:52:34;100759.04;;;33.02;31.85
33795;BME280;51430;52.242;21.118;2022-07-29T13:55:03;100753.50;;;32.56;32.74
33795;BME280;51430;52.242;21.118;2022-07-29T13:57:31;100752.04;;;32.81;31.45
33795;BME280;51430;52.242;21.118;2022-07-29T13:59:59;100750.91;;;33.15;31.05